Time;durP1;ratioP1;P1;durP2;ratioP2;P2;SDS_P1;SDS_P2;PMS_P1;PMS_P2;Temp;Humidity;BMP_temperature;BMP_pressure;BME280_temperature;BME280_humidity;BME280_pressure;Samples;Min_cycle;Max_cycle;Signal;HPM_P1;HPM_P2
2022/07/17 00:01:20;;;;;;;15.48;7.93;;;26.70;91.80;;;;;;5093070;28;20043;-70
2022/07/17 00:04:25;;;;;;;13.70;8.23;;;26.60;91.90;;;;;;5094470;28;20047;-71
2022/07/17 00:07:29;;;;;;;15.52;8.73;;;26.50;92.10;;;;;;5094356;28;20387;-70
2022/07/17 00:10:34;;;;;;;16.52;9.27;;;26.40;92.20;;;;;;5094641;28;20088;-72
2022/07/17 00:13:38;;;;;;;15.88;8.60;;;26.40;92.40;;;;;;5094354;28;20478;-70
2022/07/17 00:16:42;;;;;;;15.23;7.78;;;26.40;92.40;;;;;;5094542;28;20043;-72
2022/07/17 00:19:46;;;;;;;12.68;7.68;;;26.40;92.60;;;;;;5094783;28;20055;-72
2022/07/17 00:22:49;;;;;;;30.30;11.57;;;26.40;92.50;;;;;;5095048;28;20043;-72
2022/07/17 00:25:53;;;;;;;23.75;8.63;;;26.40;92.60;;;;;;5095017;28;20043;-72
2022/07/17 00:28:58;;;;;;;19.60;8.98;;;26.40;92.60;;;;;;5094430;28;20050;-70
2022/07/17 00:32:02;;;;;;;23.33;8.75;;;26.40;92.70;;;;;;5094853;28;20047;-70
2022/07/17 00:35:07;;;;;;;18.17;9.25;;;26.40;92.80;;;;;;5094449;28;20074;-71
2022/07/17 00:38:13;;;;;;;23.83;9.77;;;26.20;92.80;;;;;;5095689;28;20043;-70
2022/07/17 00:41:17;;;;;;;21.90;9.85;;;26.10;93.10;;;;;;5095360;28;20043;-70
2022/07/17 00:44:25;;;;;;;18.95;10.07;;;26.20;93.10;;;;;;5095336;28;20039;-71
2022/07/17 00:47:29;;;;;;;24.58;10.20;;;26.20;92.90;;;;;;5095041;28;20391;-70
2022/07/17 00:50:39;;;;;;;25.23;11.30;;;26.30;93.00;;;;;;5094544;28;20503;-70
2022/07/17 00:53:44;;;;;;;16.38;10.63;;;26.30;92.80;;;;;;5093244;28;20062;-70
2022/07/17 00:56:49;;;;;;;21.05;10.77;;;26.30;92.90;;;;;;5093137;28;20051;-71
2022/07/17 00:59:53;;;;;;;20.10;11.73;;;26.20;93.20;;;;;;5093712;28;20051;-71
2022/07/17 01:02:57;;;;;;;26.65;12.20;;;26.20;93.20;;;;;;5093123;28;20047;-70
2022/07/17 01:06:02;;;;;;;23.35;12.02;;;26.00;93.30;;;;;;5092435;28;20043;-71
2022/07/17 01:09:11;;;;;;;20.42;11.40;;;25.80;94.00;;;;;;5093980;28;20047;-71
2022/07/17 01:12:14;;;;;;;17.42;11.20;;;25.80;94.20;;;;;;5093099;28;20192;-71
2022/07/17 01:15:18;;;;;;;18.75;12.02;;;25.90;93.90;;;;;;5092983;28;20051;-71
2022/07/17 01:18:23;;;;;;;21.55;11.70;;;26.00;93.70;;;;;;5092817;28;20479;-71
2022/07/17 01:21:40;;;;;;;14.57;11.70;;;26.00;93.50;;;;;;5092862;28;20063;-71
2022/07/17 01:24:44;;;;;;;17.67;11.80;;;26.00;93.50;;;;;;5092690;28;20051;-71
2022/07/17 01:27:48;;;;;;;22.00;12.35;;;26.00;93.40;;;;;;5092390;28;20035;-71
2022/07/17 01:30:52;;;;;;;14.93;11.07;;;25.90;93.60;;;;;;5092324;28;20043;-71
2022/07/17 01:33:57;;;;;;;16.23;11.40;;;25.90;93.50;;;;;;5092295;28;20202;-71
2022/07/17 01:37:01;;;;;;;18.83;11.65;;;26.00;93.40;;;;;;5092379;28;20067;-71
2022/07/17 01:40:06;;;;;;;16.52;12.30;;;25.90;93.60;;;;;;5092165;28;20174;-71
2022/07/17 01:43:09;;;;;;;17.70;11.82;;;25.90;93.90;;;;;;5092419;28;20039;-71
2022/07/17 01:46:14;;;;;;;19.83;11.45;;;25.80;93.90;;;;;;5092071;28;20392;-71
2022/07/17 01:49:18;;;;;;;15.57;11.07;;;25.90;93.90;;;;;;5092359;28;20039;-71
2022/07/17 01:52:24;;;;;;;20.02;12.18;;;25.80;94.20;;;;;;5092121;28;20047;-71
2022/07/17 01:55:28;;;;;;;18.92;12.60;;;25.80;94.40;;;;;;5091858;28;20047;-71
2022/07/17 01:58:32;;;;;;;16.73;12.50;;;25.80;94.70;;;;;;5091941;28;20035;-71
2022/07/17 02:01:36;;;;;;;17.48;12.88;;;25.60;94.70;;;;;;5092203;28;20387;-71
2022/07/17 02:04:45;;;;;;;18.48;12.52;;;25.40;95.00;;;;;;5092303;28;20047;-72
2022/07/17 02:07:49;;;;;;;18.27;13.38;;;25.40;95.50;;;;;;5091794;28;20043;-71
2022/07/17 02:10:54;;;;;;;15.60;11.98;;;25.40;95.50;;;;;;5092014;28;20051;-72
2022/07/17 02:13:58;;;;;;;21.05;12.63;;;25.50;95.40;;;;;;5091811;28;20502;-71
2022/07/17 02:17:02;;;;;;;22.30;13.02;;;25.50;95.30;;;;;;5091706;28;20055;-71
2022/07/17 02:20:07;;;;;;;24.27;12.00;;;25.30;95.30;;;;;;5091849;28;20043;-71
2022/07/17 02:23:12;;;;;;;23.17;12.63;;;25.40;95.60;;;;;;5091687;28;20042;-71
2022/07/17 02:26:16;;;;;;;19.23;12.32;;;25.40;95.30;;;;;;5091811;28;20059;-71
2022/07/17 02:29:19;;;;;;;23.45;12.00;;;25.50;95.00;;;;;;5091560;28;20043;-71
2022/07/17 02:32:23;;;;;;;16.95;11.18;;;25.50;94.90;;;;;;5091736;28;20043;-71
2022/07/17 02:35:27;;;;;;;20.23;11.25;;;25.50;95.00;;;;;;5091467;28;20079;-71
2022/07/17 02:38:32;;;;;;;16.58;11.48;;;25.60;94.80;;;;;;5091625;28;20039;-71
2022/07/17 02:41:35;;;;;;;22.75;11.60;;;25.60;94.60;;;;;;5091566;28;20043;-71
2022/07/17 02:44:39;;;;;;;16.65;12.52;;;25.60;94.90;;;;;;5091172;28;20047;-71
2022/07/17 02:47:43;;;;;;;17.55;11.65;;;25.60;95.00;;;;;;5091215;28;20051;-71
2022/07/17 02:50:47;;;;;;;20.33;11.85;;;25.60;95.10;;;;;;5091130;28;20063;-71
2022/07/17 02:53:51;;;;;;;16.80;11.70;;;25.50;94.80;;;;;;5090989;28;20051;-71
2022/07/17 02:56:55;;;;;;;16.63;10.50;;;25.60;94.40;;;;;;5091418;28;20051;-71
2022/07/17 02:59:59;;;;;;;16.63;11.00;;;25.50;94.40;;;;;;5091005;28;20047;-71
2022/07/17 03:03:03;;;;;;;16.00;10.85;;;25.40;94.50;;;;;;5090908;28;20499;-71
2022/07/17 03:06:07;;;;;;;18.98;11.55;;;25.40;94.20;;;;;;5090237;28;20050;-72
2022/07/17 03:09:11;;;;;;;19.00;10.07;;;25.40;94.10;;;;;;5091044;28;20036;-71
2022/07/17 03:12:14;;;;;;;14.15;9.35;;;25.40;93.90;;;;;;5091105;28;20410;-71
2022/07/17 03:15:19;;;;;;;14.85;10.25;;;25.40;93.60;;;;;;5090943;28;20055;-71
2022/07/17 03:18:22;;;;;;;14.95;10.40;;;25.30;93.60;;;;;;5090663;28;20039;-72
2022/07/17 03:21:26;;;;;;;18.20;10.13;;;25.30;93.70;;;;;;5090857;28;20042;-71
2022/07/17 03:24:30;;;;;;;16.60;10.43;;;25.20;93.90;;;;;;5090834;28;20098;-71
2022/07/17 03:27:34;;;;;;;10.70;9.30;;;25.20;93.90;;;;;;5090776;28;20063;-71
2022/07/17 03:30:38;;;;;;;14.38;10.25;;;25.20;94.10;;;;;;5091007;28;20396;-71
2022/07/17 03:33:42;;;;;;;16.20;10.70;;;25.10;94.20;;;;;;5090654;28;20039;-71
2022/07/17 03:36:46;;;;;;;12.77;10.10;;;25.20;94.40;;;;;;5090759;28;20506;-71
2022/07/17 03:39:50;;;;;;;19.45;10.93;;;25.10;94.60;;;;;;5090957;28;20410;-71
2022/07/17 03:42:54;;;;;;;12.93;9.75;;;25.10;94.60;;;;;;5090596;28;20395;-71
2022/07/17 03:45:58;;;;;;;18.92;11.35;;;25.20;94.50;;;;;;5090842;28;20043;-71
2022/07/17 03:49:02;;;;;;;16.50;10.52;;;25.30;94.50;;;;;;5090301;28;20043;-68
2022/07/17 03:52:07;;;;;;;17.63;10.77;;;25.30;94.50;;;;;;5090559;28;20518;-71
2022/07/17 03:55:10;;;;;;;23.85;11.15;;;25.40;94.50;;;;;;5090331;28;20059;-71
2022/07/17 03:58:15;;;;;;;14.93;11.43;;;25.40;94.50;;;;;;5090507;28;20039;-71
2022/07/17 04:01:19;;;;;;;24.00;10.63;;;25.40;94.50;;;;;;5090638;28;20062;-71
2022/07/17 04:04:23;;;;;;;22.48;10.63;;;25.40;94.60;;;;;;5090366;28;20043;-71
2022/07/17 04:07:27;;;;;;;19.10;10.13;;;25.40;94.50;;;;;;5090411;28;20431;-71
2022/07/17 04:10:31;;;;;;;12.93;9.60;;;25.30;94.50;;;;;;5091980;28;20047;-71
2022/07/17 04:13:36;;;;;;;17.45;9.65;;;25.10;94.60;;;;;;5094233;28;20039;-71
2022/07/17 04:16:39;;;;;;;20.25;10.45;;;25.10;94.60;;;;;;5093910;28;20510;-71
2022/07/17 04:19:43;;;;;;;16.08;10.23;;;25.10;94.80;;;;;;5094245;28;20503;-71
2022/07/17 04:22:47;;;;;;;18.10;9.65;;;25.10;94.70;;;;;;5093564;28;20040;-71
2022/07/17 04:25:51;;;;;;;15.55;9.13;;;25.10;94.70;;;;;;5094032;28;20043;-71
2022/07/17 04:28:55;;;;;;;15.55;9.15;;;25.10;94.90;;;;;;5093776;28;20042;-70
2022/07/17 04:31:59;;;;;;;14.27;9.70;;;25.10;94.90;;;;;;5093139;28;20042;-71
2022/07/17 04:35:03;;;;;;;16.77;10.23;;;25.20;94.80;;;;;;5093538;28;20055;-71
2022/07/17 04:38:08;;;;;;;14.82;10.52;;;25.30;94.60;;;;;;5093924;28;20114;-71
2022/07/17 04:41:12;;;;;;;12.73;10.07;;;25.40;94.50;;;;;;5093584;28;20511;-71
2022/07/17 04:44:17;;;;;;;16.25;9.50;;;25.50;94.60;;;;;;5093516;28;20055;-71
2022/07/17 04:47:21;;;;;;;14.63;9.02;;;25.80;93.80;;;;;;5093774;28;20047;-71
2022/07/17 04:50:25;;;;;;;19.33;10.57;;;26.20;93.30;;;;;;5093400;28;20506;-71
2022/07/17 04:53:30;;;;;;;16.80;9.40;;;26.50;93.20;;;;;;5093411;28;20058;-71
2022/07/17 04:56:34;;;;;;;20.30;10.27;;;26.80;92.40;;;;;;5093262;28;20059;-71
2022/07/17 04:59:38;;;;;;;24.92;11.02;;;27.20;91.80;;;;;;5093435;28;20035;-70
2022/07/17 05:02:42;;;;;;;48.47;11.68;;;27.80;90.90;;;;;;5092952;28;20047;-70
2022/07/17 05:05:46;;;;;;;18.67;11.20;;;28.10;90.40;;;;;;5093104;28;20039;-71
2022/07/17 05:08:50;;;;;;;18.33;10.88;;;28.30;90.20;;;;;;5092862;28;20403;-71
2022/07/17 05:11:54;;;;;;;14.85;10.25;;;28.40;90.00;;;;;;5093038;28;20396;-71
2022/07/17 05:14:58;;;;;;;14.90;9.43;;;28.50;89.40;;;;;;5092700;28;20043;-71
2022/07/17 05:18:02;;;;;;;19.40;10.00;;;28.60;89.20;;;;;;5092844;28;20047;-71
2022/07/17 05:21:06;;;;;;;17.08;10.77;;;28.50;88.60;;;;;;5092415;28;20518;-71
2022/07/17 05:24:10;;;;;;;22.17;10.75;;;28.00;89.70;;;;;;5092823;28;20047;-72
2022/07/17 05:27:14;;;;;;;26.80;11.80;;;27.80;90.60;;;;;;5092644;28;20463;-71
2022/07/17 05:30:18;;;;;;;26.90;13.07;;;27.90;90.30;;;;;;5092679;28;20406;-71
2022/07/17 05:33:22;;;;;;;26.17;13.02;;;28.00;90.40;;;;;;5092675;28;20051;-71
2022/07/17 05:36:26;;;;;;;29.27;12.10;;;28.10;90.40;;;;;;5092459;28;20047;-70
2022/07/17 05:39:30;;;;;;;17.02;11.93;;;28.30;90.00;;;;;;5092406;28;20450;-70
2022/07/17 05:42:34;;;;;;;30.52;12.90;;;28.50;89.30;;;;;;5092556;28;20055;-70
2022/07/17 05:45:39;;;;;;;25.17;11.55;;;28.50;89.20;;;;;;5092618;28;20059;-69
2022/07/17 05:48:43;;;;;;;24.40;12.18;;;28.60;89.20;;;;;;5092519;28;20459;-70
2022/07/17 05:51:47;;;;;;;28.52;10.57;;;28.70;89.00;;;;;;5091546;28;20067;-70
2022/07/17 05:54:51;;;;;;;15.63;10.20;;;28.90;89.00;;;;;;5091931;28;20392;-70
2022/07/17 05:57:54;;;;;;;20.10;10.02;;;29.20;88.20;;;;;;5092435;28;20039;-69
2022/07/17 06:00:59;;;;;;;21.85;10.20;;;29.30;87.90;;;;;;5092286;28;20055;-69
2022/07/17 06:04:03;;;;;;;19.17;10.25;;;29.50;87.70;;;;;;5092252;28;20039;-69
2022/07/17 06:07:07;;;;;;;19.95;10.18;;;29.70;88.30;;;;;;5092109;28;20047;-69
2022/07/17 06:10:11;;;;;;;19.50;10.40;;;29.90;87.20;;;;;;5092245;28;20047;-69
2022/07/17 06:13:15;;;;;;;23.30;9.30;;;30.00;86.50;;;;;;5092069;28;20054;-69
2022/07/17 06:16:19;;;;;;;23.00;9.70;;;30.00;86.80;;;;;;5091735;28;20514;-69
2022/07/17 06:19:23;;;;;;;25.85;8.45;;;30.00;86.50;;;;;;5091922;28;20055;-69
2022/07/17 06:22:28;;;;;;;17.60;8.57;;;30.10;86.90;;;;;;5091627;28;20038;-69
2022/07/17 06:25:32;;;;;;;15.07;8.18;;;30.40;85.90;;;;;;5091967;28;20047;-69
2022/07/17 06:28:35;;;;;;;12.75;8.52;;;30.60;85.00;;;;;;5091829;28;20379;-69
2022/07/17 06:31:40;;;;;;;12.32;7.90;;;31.00;84.50;;;;;;5091928;28;20047;-69
2022/07/17 06:34:44;;;;;;;13.00;7.15;;;31.30;83.50;;;;;;5090972;28;20047;-69
2022/07/17 06:37:48;;;;;;;12.45;7.72;;;31.50;82.30;;;;;;5091534;28;20051;-69
2022/07/17 06:40:52;;;;;;;18.30;7.88;;;31.80;81.60;;;;;;5091466;28;20059;-70
2022/07/17 06:43:56;;;;;;;17.08;7.50;;;32.10;81.00;;;;;;5091510;28;20415;-69
2022/07/17 06:47:00;;;;;;;13.52;6.57;;;32.20;80.40;;;;;;5091338;28;20042;-70
2022/07/17 06:50:05;;;;;;;19.63;8.20;;;32.50;79.60;;;;;;5091205;28;20063;-69
2022/07/17 06:53:09;;;;;;;15.23;7.75;;;32.60;79.00;;;;;;5091187;28;20503;-69
2022/07/17 06:56:13;;;;;;;16.40;8.82;;;32.70;78.90;;;;;;5091189;28;20506;-70
2022/07/17 06:59:17;;;;;;;14.93;7.32;;;32.90;78.30;;;;;;5090987;28;20039;-70
2022/07/17 07:02:21;;;;;;;11.85;7.20;;;32.90;78.50;;;;;;5090941;28;20400;-70
2022/07/17 07:05:25;;;;;;;13.82;6.90;;;33.00;77.60;;;;;;5091034;28;20142;-70
2022/07/17 07:08:30;;;;;;;15.77;6.82;;;33.30;77.20;;;;;;5091306;28;20055;-69
2022/07/17 07:11:34;;;;;;;9.30;6.90;;;33.70;75.50;;;;;;5091155;28;20039;-70
2022/07/17 07:14:37;;;;;;;21.98;8.48;;;33.70;75.20;;;;;;5091420;28;20063;-70
2022/07/17 07:17:42;;;;;;;13.60;7.32;;;33.70;75.00;;;;;;5091059;28;20356;-69
2022/07/17 07:20:46;;;;;;;15.15;6.80;;;33.80;74.40;;;;;;5091168;28;20051;-69
2022/07/17 07:23:50;;;;;;;13.70;5.88;;;33.90;74.60;;;;;;5090992;28;20047;-70
2022/07/17 07:26:54;;;;;;;9.60;5.30;;;34.10;73.30;;;;;;5091165;28;20043;-70
2022/07/17 07:29:58;;;;;;;8.77;5.18;;;34.30;72.10;;;;;;5090584;28;20039;-70
2022/07/17 07:33:02;;;;;;;13.63;5.60;;;34.50;70.70;;;;;;5090945;28;20039;-70
2022/07/17 07:36:06;;;;;;;11.05;4.93;;;34.50;69.70;;;;;;5090595;28;20059;-70
2022/07/17 07:39:10;;;;;;;12.68;4.75;;;34.70;69.80;;;;;;5089892;28;20047;-70
2022/07/17 07:42:14;;;;;;;10.45;5.07;;;34.70;69.40;;;;;;5090898;28;20106;-70
2022/07/17 07:45:18;;;;;;;8.00;5.18;;;34.70;69.20;;;;;;5092976;28;20047;-70
2022/07/17 07:48:22;;;;;;;8.70;4.68;;;34.80;68.80;;;;;;5094437;28;20106;-70
2022/07/17 07:51:25;;;;;;;9.73;4.80;;;35.00;67.10;;;;;;5094144;28;20071;-70
2022/07/17 07:54:30;;;;;;;16.00;6.63;;;35.20;67.30;;;;;;5094395;28;20399;-70
2022/07/17 07:57:35;;;;;;;9.70;5.43;;;35.00;66.80;;;;;;5094445;28;20141;-69
2022/07/17 08:00:42;;;;;;;14.18;5.43;;;35.00;67.00;;;;;;5094207;28;20043;-70
2022/07/17 08:03:47;;;;;;;12.52;5.82;;;34.90;67.40;;;;;;5094176;28;20074;-70
2022/07/17 08:06:50;;;;;;;13.07;4.97;;;35.00;67.40;;;;;;5094085;28;20044;-70
2022/07/17 08:09:55;;;;;;;8.40;5.47;;;35.20;66.90;;;;;;5094232;28;20035;-70
2022/07/17 08:12:59;;;;;;;8.85;5.40;;;35.50;67.00;;;;;;5094297;28;20043;-69
2022/07/17 08:16:03;;;;;;;12.43;5.60;;;35.80;66.10;;;;;;5093987;28;20047;-69
2022/07/17 08:19:07;;;;;;;15.00;5.72;;;35.90;65.30;;;;;;5094046;28;20039;-69
2022/07/17 08:22:12;;;;;;;7.55;4.90;;;36.00;65.40;;;;;;5093993;28;20066;-69
2022/07/17 08:25:16;;;;;;;13.60;5.25;;;36.00;64.60;;;;;;5081291;28;20048;-69
2022/07/17 08:28:20;;;;;;;12.98;5.18;;;36.10;64.00;;;;;;5093460;28;20502;-69
2022/07/17 08:31:25;;;;;;;12.05;5.43;;;36.10;62.70;;;;;;5093432;28;20503;-69
2022/07/17 08:34:29;;;;;;;9.70;5.35;;;36.00;64.20;;;;;;5092699;28;20035;-69
2022/07/17 08:37:47;;;;;;;7.40;4.75;;;36.10;64.30;;;;;;5093471;28;20114;-69
2022/07/17 08:40:53;;;;;;;13.10;5.50;;;36.30;64.10;;;;;;5093916;28;20042;-70
2022/07/17 08:43:57;;;;;;;12.32;5.63;;;36.40;63.90;;;;;;5093221;28;20400;-69
2022/07/17 08:47:01;;;;;;;10.32;5.68;;;36.40;64.30;;;;;;5093257;28;20410;-69
2022/07/17 08:50:06;;;;;;;7.43;4.70;;;36.30;63.80;;;;;;5093018;28;20059;-70
2022/07/17 08:53:11;;;;;;;8.30;4.72;;;36.30;63.40;;;;;;5093283;28;20118;-70
2022/07/17 08:56:15;;;;;;;9.73;5.00;;;36.40;63.40;;;;;;5092152;28;20055;-70
2022/07/17 08:59:19;;;;;;;9.82;4.68;;;36.30;62.60;;;;;;5093313;28;20495;-70
2022/07/17 09:02:23;;;;;;;8.38;4.68;;;36.30;62.50;;;;;;5092818;28;20404;-70
2022/07/17 09:05:48;;;;;;;9.75;4.47;;;36.20;62.40;;;;;;5092877;28;20047;-70
2022/07/17 09:09:10;;;;;;;8.40;5.22;;;36.20;62.90;;;;;;5093159;28;20043;-70
2022/07/17 09:12:15;;;;;;;8.30;5.30;;;36.20;62.40;;;;;;5093141;28;20058;-69
2022/07/17 09:15:20;;;;;;;11.30;4.70;;;36.10;62.30;;;;;;5092739;28;20043;-69
2022/07/17 09:18:25;;;;;;;5.85;4.75;;;36.00;62.50;;;;;;5092530;28;20110;-69
2022/07/17 09:21:29;;;;;;;9.73;4.72;;;36.00;63.10;;;;;;5092700;28;20047;-69
2022/07/17 09:24:45;;;;;;;6.93;5.15;;;36.20;62.70;;;;;;5092382;28;20506;-69
2022/07/17 09:27:49;;;;;;;10.30;4.95;;;36.20;62.60;;;;;;5092789;28;20384;-69
2022/07/17 09:30:55;;;;;;;6.63;4.88;;;36.10;62.50;;;;;;5092322;28;20043;-69
2022/07/17 09:34:00;;;;;;;9.25;5.38;;;36.10;63.00;;;;;;5092307;28;20399;-69
2022/07/17 09:37:04;;;;;;;8.18;5.32;;;36.20;63.10;;;;;;5092214;28;20046;-70
2022/07/17 09:40:10;;;;;;;11.68;5.07;;;36.20;62.60;;;;;;5092431;28;20039;-70
2022/07/17 09:43:14;;;;;;;12.35;6.07;;;36.30;63.10;;;;;;5092288;28;20042;-70
2022/07/17 09:46:24;;;;;;;10.18;5.70;;;36.20;63.40;;;;;;5092145;28;20039;-69
2022/07/17 09:49:28;;;;;;;13.50;6.22;;;36.20;63.40;;;;;;5092174;28;20055;-69
2022/07/17 09:52:35;;;;;;;12.32;5.60;;;36.10;63.10;;;;;;5092264;28;20499;-69
2022/07/17 09:55:40;;;;;;;9.98;5.50;;;36.20;63.50;;;;;;5092070;28;20051;-70
2022/07/17 09:58:57;;;;;;;9.18;5.30;;;36.20;63.20;;;;;;5092248;28;20495;-70
2022/07/17 10:02:01;;;;;;;7.85;5.10;;;36.20;63.10;;;;;;5092029;28;20042;-71
2022/07/17 10:05:07;;;;;;;11.48;5.70;;;36.30;62.70;;;;;;5092376;28;20094;-70
2022/07/17 10:08:12;;;;;;;6.82;4.75;;;36.30;62.60;;;;;;5091822;28;20051;-70
2022/07/17 10:11:20;;;;;;;9.07;5.25;;;36.20;62.50;;;;;;5091839;28;20047;-70
2022/07/17 10:14:24;;;;;;;6.88;4.85;;;36.30;62.50;;;;;;5090914;28;20055;-69
2022/07/17 10:17:28;;;;;;;8.57;5.63;;;36.40;62.40;;;;;;5091580;28;20051;-71
2022/07/17 10:20:32;;;;;;;10.10;4.88;;;36.50;62.00;;;;;;5091608;28;20039;-69
2022/07/17 10:23:37;;;;;;;8.27;4.95;;;36.60;61.90;;;;;;5090459;28;20051;-69
2022/07/17 10:26:48;;;;;;;9.27;4.90;;;36.60;61.60;;;;;;5091364;28;20043;-69
2022/07/17 10:30:28;;;;;;;6.47;4.55;;;36.60;60.80;;;;;;5090455;28;20043;-69
2022/07/17 10:33:32;;;;;;;5.18;4.60;;;36.60;61.30;;;;;;5090646;28;20050;-69
2022/07/17 10:36:42;;;;;;;6.85;4.82;;;36.60;61.20;;;;;;5091384;28;20055;-69
2022/07/17 10:39:53;;;;;;;8.85;4.97;;;36.60;60.30;;;;;;5091353;28;20043;-69
2022/07/17 10:43:05;;;;;;;7.15;4.80;;;36.60;60.90;;;;;;5091536;28;20046;-70
2022/07/17 10:46:08;;;;;;;7.43;5.50;;;36.60;60.80;;;;;;5091543;28;20391;-70
2022/07/17 10:49:13;;;;;;;12.45;5.45;;;36.60;62.90;;;;;;5091122;28;20503;-69
2022/07/17 10:52:17;;;;;;;7.40;5.55;;;36.50;63.40;;;;;;5091101;28;20062;-72
2022/07/17 10:55:21;;;;;;;9.02;5.57;;;36.50;65.10;;;;;;5091368;28;20397;-72
2022/07/17 10:58:29;;;;;;;7.95;5.38;;;36.30;65.10;;;;;;5091193;28;20051;-69
2022/07/17 11:01:33;;;;;;;6.93;5.40;;;36.30;65.60;;;;;;5091142;28;20495;-69
2022/07/17 11:04:39;;;;;;;7.97;5.63;;;36.40;66.10;;;;;;5090463;28;20059;-69
2022/07/17 11:07:58;;;;;;;7.45;5.40;;;36.30;66.00;;;;;;5090963;28;20074;-69
2022/07/17 11:11:02;;;;;;;13.95;6.13;;;36.30;66.50;;;;;;5091257;28;20039;-71
2022/07/17 11:14:20;;;;;;;7.32;5.38;;;36.30;66.70;;;;;;5089991;28;20039;-69
2022/07/17 11:17:25;;;;;;;6.47;5.40;;;36.20;66.90;;;;;;5090023;28;20051;-69
2022/07/17 11:20:29;;;;;;;9.10;5.38;;;36.20;66.80;;;;;;5093821;28;20047;-69
2022/07/17 11:23:34;;;;;;;5.93;5.22;;;36.10;66.80;;;;;;5093733;28;20062;-69
2022/07/17 11:26:37;;;;;;;8.02;5.35;;;36.00;67.10;;;;;;5095170;28;20043;-69
2022/07/17 11:29:43;;;;;;;6.63;5.32;;;36.00;67.20;;;;;;5094948;28;20051;-69
2022/07/17 11:32:47;;;;;;;6.82;5.00;;;36.00;67.00;;;;;;5094773;28;20048;-68
2022/07/17 11:35:51;;;;;;;6.38;5.72;;;36.00;67.40;;;;;;5095002;28;20495;-69
2022/07/17 11:38:57;;;;;;;11.93;5.85;;;36.00;67.50;;;;;;5094837;28;20495;-69
2022/07/17 11:42:02;;;;;;;10.10;5.45;;;35.90;67.60;;;;;;5094531;28;20526;-69
2022/07/17 11:45:07;;;;;;;10.65;5.20;;;35.90;67.30;;;;;;5094781;28;20039;-69
2022/07/17 11:48:11;;;;;;;6.22;5.60;;;35.80;67.60;;;;;;5094420;28;20039;-68
2022/07/17 11:51:16;;;;;;;12.10;6.25;;;35.90;67.60;;;;;;5094279;28;20066;-68
2022/07/17 11:54:20;;;;;;;5.45;4.85;;;35.80;67.60;;;;;;5094389;28;20047;-69
2022/07/17 11:57:27;;;;;;;5.93;5.43;;;35.90;67.60;;;;;;5094054;28;20511;-69
2022/07/17 12:00:31;;;;;;;6.68;4.90;;;35.80;67.50;;;;;;5094639;28;20043;-70
2022/07/17 12:03:36;;;;;;;7.22;5.30;;;35.80;67.80;;;;;;5094208;28;20039;-69
2022/07/17 12:06:41;;;;;;;8.13;5.80;;;35.80;68.30;;;;;;5094073;28;20043;-70
2022/07/17 12:09:45;;;;;;;6.57;5.28;;;35.80;67.80;;;;;;5094163;28;20395;-70
2022/07/17 12:12:56;;;;;;;9.63;5.28;;;35.80;67.90;;;;;;5094070;28;20039;-70
2022/07/17 12:15:59;;;;;;;6.22;5.07;;;35.80;67.70;;;;;;5094189;28;20051;-70
2022/07/17 12:19:24;;;;;;;8.27;5.20;;;35.70;67.80;;;;;;5094168;28;20058;-70
2022/07/17 12:22:29;;;;;;;7.13;4.95;;;35.70;68.20;;;;;;5093725;28;20044;-70
2022/07/17 12:25:34;;;;;;;8.63;5.55;;;35.70;67.80;;;;;;5094011;28;20043;-70
2022/07/17 12:28:39;;;;;;;9.15;5.22;;;35.60;68.30;;;;;;5093779;28;20043;-69
2022/07/17 12:31:43;;;;;;;6.40;5.30;;;35.50;68.50;;;;;;5092609;28;20043;-69
2022/07/17 12:34:48;;;;;;;5.85;5.25;;;35.40;69.20;;;;;;5093470;28;20062;-70
2022/07/17 12:37:53;;;;;;;6.72;5.38;;;35.40;69.20;;;;;;5093576;28;20051;-70
2022/07/17 12:40:57;;;;;;;5.78;5.20;;;35.40;69.60;;;;;;5093278;28;20396;-70
2022/07/17 12:44:01;;;;;;;11.60;5.38;;;35.30;70.40;;;;;;5081101;28;20055;-70
2022/07/17 12:47:05;;;;;;;8.38;4.43;;;35.30;70.90;;;;;;5093471;28;20039;-69
2022/07/17 12:50:09;;;;;;;8.35;5.07;;;35.30;70.80;;;;;;5093210;28;20055;-70
2022/07/17 12:53:13;;;;;;;6.00;5.20;;;35.30;71.10;;;;;;5093471;28;20039;-70
2022/07/17 12:56:17;;;;;;;9.18;5.60;;;35.30;71.40;;;;;;5093299;28;20070;-70
2022/07/17 12:59:22;;;;;;;6.40;4.47;;;35.30;71.30;;;;;;5093536;28;20043;-70
2022/07/17 13:02:26;;;;;;;6.90;5.13;;;35.30;71.50;;;;;;5093002;28;20047;-70
2022/07/17 13:05:30;;;;;;;5.45;4.78;;;35.20;71.50;;;;;;5093520;28;20502;-69
2022/07/17 13:08:35;;;;;;;6.55;4.90;;;35.20;71.90;;;;;;5093421;28;20048;-70
2022/07/17 13:11:42;;;;;;;8.05;5.28;;;35.20;72.20;;;;;;5092916;28;20036;-70
2022/07/17 13:14:47;;;;;;;9.68;5.53;;;35.20;72.70;;;;;;5092919;28;20046;-69
2022/07/17 13:17:51;;;;;;;11.77;5.10;;;35.10;73.00;;;;;;5092682;28;20051;-69
2022/07/17 13:20:55;;;;;;;8.80;4.60;;;35.10;72.90;;;;;;5092939;28;20536;-70
2022/07/17 13:23:59;;;;;;;13.23;5.22;;;35.00;72.90;;;;;;5092707;28;20110;-70
2022/07/17 13:27:03;;;;;;;7.65;4.80;;;35.00;73.00;;;;;;5092673;28;20034;-70
2022/07/17 13:30:08;;;;;;;12.65;5.15;;;35.00;73.00;;;;;;5092833;28;20051;-70
2022/07/17 13:33:12;;;;;;;9.38;4.60;;;35.00;73.40;;;;;;5092537;28;20047;-70
2022/07/17 13:36:15;;;;;;;7.28;4.18;;;35.00;73.30;;;;;;5091700;28;20047;-70
2022/07/17 13:39:20;;;;;;;5.13;4.47;;;34.90;73.80;;;;;;5092318;28;20685;-70
2022/07/17 13:42:24;;;;;;;6.05;4.70;;;34.90;73.70;;;;;;5092188;28;20051;-70
2022/07/17 13:45:29;;;;;;;11.50;4.95;;;34.90;73.80;;;;;;5092340;28;20043;-70
2022/07/17 13:48:33;;;;;;;5.47;4.20;;;34.90;74.30;;;;;;5092561;28;20047;-69
2022/07/17 13:51:37;;;;;;;5.55;4.00;;;34.90;74.00;;;;;;5092451;28;20665;-70
2022/07/17 13:54:40;;;;;;;6.22;4.07;;;34.90;74.50;;;;;;5092213;28;20043;-70
2022/07/17 13:57:44;;;;;;;6.45;4.07;;;34.90;74.70;;;;;;5092017;28;20051;-71
2022/07/17 14:00:48;;;;;;;5.57;4.28;;;34.90;74.70;;;;;;5091962;28;20039;-70
2022/07/17 14:03:53;;;;;;;4.93;4.20;;;34.90;74.80;;;;;;5091890;28;20044;-70
2022/07/17 14:06:57;;;;;;;7.80;4.43;;;34.90;74.80;;;;;;5091991;28;20054;-70
2022/07/17 14:10:02;;;;;;;4.18;3.75;;;34.90;74.40;;;;;;5092209;28;20063;-70
2022/07/17 14:13:06;;;;;;;10.32;4.10;;;34.80;74.50;;;;;;5091792;28;20411;-70
2022/07/17 14:16:10;;;;;;;7.50;3.80;;;34.80;74.50;;;;;;5091782;28;20039;-70
2022/07/17 14:19:14;;;;;;;6.57;3.92;;;34.80;74.50;;;;;;5092040;28;20055;-71
2022/07/17 14:22:18;;;;;;;4.88;4.32;;;34.80;74.50;;;;;;5091935;28;20035;-71
2022/07/17 14:25:22;;;;;;;5.68;4.15;;;34.80;74.70;;;;;;5091976;28;20043;-71
2022/07/17 14:28:26;;;;;;;5.85;3.88;;;34.80;74.50;;;;;;5091589;28;20051;-71
2022/07/17 14:31:30;;;;;;;8.65;3.78;;;34.90;74.40;;;;;;5090754;28;20035;-71
2022/07/17 14:34:35;;;;;;;5.35;4.05;;;34.80;74.20;;;;;;5091667;28;20047;-71
2022/07/17 14:37:38;;;;;;;5.53;3.63;;;34.80;74.00;;;;;;5091330;28;20050;-71
2022/07/17 14:40:42;;;;;;;5.80;3.92;;;34.80;73.80;;;;;;5091637;28;20047;-71
2022/07/17 14:43:46;;;;;;;8.20;3.88;;;34.80;73.40;;;;;;5091387;28;20047;-71
2022/07/17 14:46:51;;;;;;;4.75;3.38;;;34.90;73.40;;;;;;5091591;28;20047;-71
2022/07/17 14:49:55;;;;;;;7.80;3.67;;;34.80;73.30;;;;;;5091124;28;20051;-69
2022/07/17 14:52:59;;;;;;;4.25;3.85;;;34.80;73.30;;;;;;5090394;28;20055;-71
2022/07/17 14:56:03;;;;;;;6.63;3.80;;;34.80;73.20;;;;;;5090820;28;20039;-71
2022/07/17 14:59:07;;;;;;;6.70;3.47;;;34.80;73.40;;;;;;5091417;28;20055;-71
2022/07/17 15:02:11;;;;;;;4.85;4.10;;;34.80;73.30;;;;;;5091280;28;20051;-69
2022/07/17 15:05:16;;;;;;;4.07;3.67;;;34.70;73.40;;;;;;5091407;28;20138;-70
2022/07/17 15:08:20;;;;;;;4.65;3.90;;;34.70;73.20;;;;;;5091443;28;20388;-71
2022/07/17 15:11:24;;;;;;;4.38;3.30;;;34.80;73.40;;;;;;5090977;28;20051;-70
2022/07/17 15:14:28;;;;;;;4.03;3.42;;;34.70;73.40;;;;;;5091289;28;20039;-70
2022/07/17 15:17:32;;;;;;;7.65;4.07;;;34.70;73.60;;;;;;5090686;28;20051;-70
2022/07/17 15:20:36;;;;;;;7.50;4.00;;;34.70;73.60;;;;;;5090999;28;20047;-70
2022/07/17 15:23:41;;;;;;;5.20;3.95;;;34.70;73.90;;;;;;5090728;28;20063;-70
2022/07/17 15:26:46;;;;;;;4.63;3.60;;;34.70;73.90;;;;;;5090760;28;20409;-70
2022/07/17 15:29:49;;;;;;;7.32;5.28;;;34.70;74.00;;;;;;5090518;28;20057;-70
2022/07/17 15:32:53;;;;;;;5.32;4.13;;;34.60;73.80;;;;;;5090480;28;20047;-69
2022/07/17 15:36:00;;;;;;;7.93;4.30;;;34.50;73.50;;;;;;5089539;28;20047;-69
2022/07/17 15:39:05;;;;;;;4.88;3.50;;;34.50;73.00;;;;;;5090469;28;20047;-70
2022/07/17 15:42:09;;;;;;;7.50;4.25;;;34.60;73.10;;;;;;5090166;28;20050;-70
2022/07/17 15:45:13;;;;;;;5.00;3.70;;;34.60;72.80;;;;;;5090477;28;20039;-70
2022/07/17 15:48:17;;;;;;;4.40;4.00;;;34.60;72.80;;;;;;5090528;28;20039;-70
2022/07/17 15:51:22;;;;;;;4.55;4.10;;;34.60;73.10;;;;;;5090065;28;20043;-71